createdAt,value
2019-06-07T00:03:56.088Z,91.10
2019-06-07T00:08:07.838Z,91.00
2019-06-07T00:12:04.429Z,90.00
2019-06-07T00:16:08.690Z,89.30
2019-06-07T00:20:16.641Z,89.10
2019-06-07T00:24:19.415Z,90.60
2019-06-07T00:28:22.121Z,90.90
2019-06-07T00:32:25.121Z,91.20
2019-06-07T00:36:28.170Z,91.30
2019-06-07T00:40:32.371Z,91.00
2019-06-07T00:44:35.471Z,90.90
2019-06-07T00:48:38.543Z,91.80
2019-06-07T00:53:13.871Z,92.50
2019-06-07T00:56:46.854Z,92.80
2019-06-07T01:00:49.837Z,92.50
2019-06-07T01:04:52.852Z,92.50
2019-06-07T01:08:55.865Z,93.00
2019-06-07T01:12:58.877Z,92.60
2019-06-07T01:17:27.601Z,92.40
2019-06-07T01:21:23.507Z,92.30
2019-06-07T01:25:26.301Z,93.10
2019-06-07T01:29:31.130Z,93.10
2019-06-07T01:33:50.481Z,93.30
2019-06-07T01:37:39.271Z,93.00
2019-06-07T01:41:42.286Z,92.60
2019-06-07T01:45:45.315Z,92.40
2019-06-07T01:49:48.421Z,92.40
2019-06-07T01:54:41.468Z,92.60
2019-06-07T01:57:57.316Z,92.60
2019-06-07T02:02:00.390Z,92.20
2019-06-07T02:06:03.395Z,92.80
2019-06-07T02:10:07.145Z,93.30
2019-06-07T02:14:10.243Z,93.40
2019-06-07T02:18:13.232Z,92.80
2019-06-07T02:22:16.240Z,92.70
2019-06-07T02:26:20.427Z,92.60
2019-06-07T02:30:40.550Z,94.50
2019-06-07T02:34:35.931Z,93.60
2019-06-07T02:38:37.528Z,92.90
2019-06-07T02:42:42.667Z,93.40
2019-06-07T02:46:49.037Z,93.30
2019-06-07T02:50:48.684Z,93.60
2019-06-07T02:54:51.740Z,93.60
2019-06-07T02:58:56.129Z,93.30
2019-06-07T03:02:59.225Z,93.50
2019-06-07T03:07:03.155Z,93.50
2019-06-07T03:11:06.672Z,93.60
2019-06-07T03:15:10.077Z,94.00
2019-06-07T03:19:15.008Z,94.70
2019-06-07T03:23:19.193Z,94.30
2019-06-07T03:27:34.714Z,94.10
2019-06-07T03:31:31.694Z,95.70
2019-06-07T03:35:34.815Z,96.40
2019-06-07T03:39:40.927Z,96.40
2019-06-07T03:43:42.663Z,96.50
2019-06-07T03:47:45.766Z,96.90
2019-06-07T03:51:48.783Z,96.80
2019-06-07T03:55:51.793Z,96.60
2019-06-07T03:59:55.847Z,95.70
2019-06-07T04:03:58.850Z,95.60
2019-06-07T04:08:01.902Z,95.50
2019-06-07T04:12:04.941Z,95.10
2019-06-07T04:16:08.002Z,95.50
2019-06-07T04:20:11.112Z,95.90
2019-06-07T04:24:14.120Z,96.00
2019-06-07T04:28:17.152Z,96.90
2019-06-07T04:32:20.212Z,97.70
2019-06-07T04:36:39.325Z,97.50
2019-06-07T04:40:30.656Z,97.80
2019-06-07T04:44:39.316Z,98.20
2019-06-07T04:48:43.723Z,98.10
2019-06-07T04:52:49.473Z,98.50
2019-06-07T04:56:55.718Z,98.80
2019-06-07T05:01:03.522Z,98.80
2019-06-07T05:05:07.744Z,99.10
2019-06-07T05:09:13.419Z,98.20
2019-06-07T05:13:19.165Z,99.00
2019-06-07T05:17:25.045Z,98.70
2019-06-07T05:21:49.162Z,98.70
2019-06-07T05:25:39.286Z,99.00
2019-06-07T05:29:45.951Z,98.20
2019-06-07T05:33:50.965Z,98.30
2019-06-07T05:37:56.616Z,98.60
2019-06-07T05:42:00.121Z,98.30
2019-06-07T05:46:03.172Z,96.60
2019-06-07T05:50:37.827Z,96.00
2019-06-07T05:54:12.076Z,95.40
2019-06-07T05:58:15.297Z,96.20
2019-06-07T06:02:24.984Z,97.90
2019-06-07T06:06:25.344Z,93.80
2019-06-07T06:10:28.583Z,94.10
2019-06-07T06:14:31.656Z,94.10
2019-06-07T06:18:35.653Z,94.40
2019-06-07T06:22:43.429Z,95.20
2019-06-07T06:26:50.876Z,94.90
2019-06-07T06:30:50.027Z,94.30
2019-06-07T06:34:55.647Z,94.50
2019-06-07T06:38:58.084Z,94.30
2019-06-07T06:43:01.159Z,92.70
2019-06-07T06:47:04.224Z,92.90
2019-06-07T06:51:07.975Z,94.00
2019-06-07T06:55:11.448Z,94.00
2019-06-07T06:59:37.570Z,94.20
2019-06-07T07:03:56.101Z,93.90
2019-06-07T07:07:26.883Z,93.10
2019-06-07T07:11:28.038Z,92.60
2019-06-07T07:15:29.036Z,92.50
2019-06-07T07:19:30.077Z,92.30
2019-06-07T07:23:31.169Z,92.60
2019-06-07T07:27:34.477Z,91.90
2019-06-07T07:31:35.494Z,91.60
2019-06-07T07:35:37.403Z,91.00
2019-06-07T07:39:38.412Z,90.20
2019-06-07T07:43:41.520Z,89.70
2019-06-07T07:48:01.839Z,86.80
2019-06-07T07:51:52.789Z,86.70
2019-06-07T07:55:58.504Z,85.60
2019-06-07T08:00:13.670Z,86.00
2019-06-07T08:04:00.779Z,85.10
2019-06-07T08:08:07.522Z,82.30
2019-06-07T08:12:07.319Z,81.10
2019-06-07T08:16:15.043Z,79.90
2019-06-07T08:20:11.861Z,74.60
2019-06-07T08:24:14.867Z,71.40
2019-06-07T08:28:17.956Z,69.40
2019-06-07T08:32:19.108Z,67.30
2019-06-07T08:36:37.561Z,64.70
2019-06-07T08:40:25.810Z,66.30
2019-06-07T08:44:26.815Z,62.20
2019-06-07T08:48:30.253Z,61.10
2019-06-07T08:52:32.859Z,59.20
2019-06-07T08:56:33.979Z,61.80
2019-06-07T09:00:46.996Z,61.30
2019-06-07T09:04:43.669Z,62.80
2019-06-07T09:08:44.997Z,61.00
2019-06-07T09:12:46.106Z,59.40
2019-06-07T09:16:47.111Z,55.60
2019-06-07T09:20:48.212Z,55.50
2019-06-07T09:24:51.217Z,55.20
2019-06-07T09:28:53.575Z,54.10
2019-06-07T09:32:55.602Z,53.20
2019-06-07T09:37:10.820Z,51.30
2019-06-07T09:41:04.540Z,50.60
2019-06-07T09:45:11.695Z,52.30
2019-06-07T09:49:21.244Z,50.80
2019-06-07T09:53:22.388Z,47.70
2019-06-07T09:57:22.320Z,47.70
2019-06-07T10:01:25.406Z,48.20
2019-06-07T10:05:28.988Z,48.10
2019-06-07T10:13:37.628Z,49.50
2019-06-07T10:17:40.756Z,53.40
2019-06-07T10:21:43.772Z,54.40
2019-06-07T10:25:46.788Z,50.30
2019-06-07T10:29:49.797Z,52.50
2019-06-07T10:33:52.804Z,50.00
2019-06-07T10:37:58.200Z,49.50
2019-06-07T10:42:00.974Z,46.10
2019-06-07T10:46:05.643Z,49.60
2019-06-07T10:50:10.418Z,50.90
2019-06-07T10:54:24.560Z,47.80
2019-06-07T10:58:19.067Z,48.10
2019-06-07T11:02:22.209Z,49.40
2019-06-07T11:06:26.174Z,53.90
2019-06-07T11:10:29.191Z,52.30
2019-06-07T11:14:32.454Z,51.90
2019-06-07T11:18:35.546Z,52.50
2019-06-07T11:22:38.595Z,53.40
2019-06-07T11:26:41.663Z,54.20
2019-06-07T11:30:44.928Z,54.30
2019-06-07T11:34:48.037Z,55.80
2019-06-07T11:38:51.077Z,54.80
2019-06-07T11:42:54.072Z,54.90
2019-06-07T11:46:57.437Z,54.10
2019-06-07T11:51:00.765Z,54.90
2019-06-07T11:55:09.061Z,57.20
2019-06-07T11:59:13.361Z,57.40
2019-06-07T12:03:18.026Z,56.40
2019-06-07T12:07:23.456Z,57.30
2019-06-07T12:11:26.449Z,58.50
2019-06-07T12:15:29.480Z,58.40
2019-06-07T12:19:32.490Z,56.60
2019-06-07T12:23:35.475Z,56.80
2019-06-07T12:27:38.485Z,58.40
2019-06-07T12:31:41.510Z,57.90
2019-06-07T12:35:44.540Z,58.50
2019-06-07T12:39:47.628Z,57.00
2019-06-07T12:43:50.692Z,56.10
2019-06-07T12:47:53.772Z,55.60
2019-06-07T12:51:56.879Z,55.40
2019-06-07T12:56:00.311Z,54.60
2019-06-07T13:00:07.149Z,56.20
2019-06-07T13:04:10.156Z,56.90
2019-06-07T13:08:15.601Z,57.00
2019-06-07T13:12:19.767Z,57.70
2019-06-07T13:16:24.131Z,55.40
2019-06-07T13:20:28.845Z,57.60
2019-06-07T13:24:32.010Z,56.30
2019-06-07T13:28:35.218Z,57.60
2019-06-07T13:32:38.378Z,55.30
2019-06-07T13:36:41.396Z,55.90
2019-06-07T13:40:44.462Z,55.70
2019-06-07T13:44:47.642Z,56.40
2019-06-07T13:48:50.720Z,54.80
2019-06-07T13:52:53.844Z,56.60
2019-06-07T13:57:02.297Z,55.70
2019-06-07T14:01:01.901Z,56.40
2019-06-07T14:05:05.981Z,57.70
2019-06-07T14:09:10.604Z,56.80
2019-06-07T14:13:13.749Z,56.20
2019-06-07T14:17:16.774Z,57.50
2019-06-07T14:21:20.412Z,56.70
2019-06-07T14:25:23.609Z,57.70
2019-06-07T14:29:27.784Z,55.80
2019-06-07T14:33:32.513Z,57.80
2019-06-07T14:37:36.069Z,57.30
2019-06-07T14:41:39.079Z,58.80
2019-06-07T14:45:42.067Z,56.80
2019-06-07T14:49:45.131Z,59.00
2019-06-07T14:53:48.229Z,56.80
2019-06-07T14:57:51.352Z,56.60
2019-06-07T15:01:54.412Z,56.80
2019-06-07T15:05:57.508Z,56.80
2019-06-07T15:10:01.660Z,56.20
2019-06-07T15:14:04.785Z,54.90
2019-06-07T15:18:07.803Z,56.20
2019-06-07T15:22:10.919Z,55.70
2019-06-07T15:26:13.941Z,56.10
2019-06-07T15:30:17.650Z,56.20
2019-06-07T15:34:20.675Z,57.60
2019-06-07T15:38:23.686Z,57.60
2019-06-07T15:42:41.626Z,58.80
2019-06-07T15:46:31.624Z,56.80
2019-06-07T15:50:34.683Z,59.10
2019-06-07T15:54:38.501Z,58.60
2019-06-07T15:58:41.623Z,58.30
2019-06-07T16:02:44.645Z,59.20
2019-06-07T16:06:47.687Z,58.90
2019-06-07T16:10:52.011Z,58.20
2019-06-07T16:14:55.027Z,58.40
2019-06-07T16:18:58.040Z,58.30
2019-06-07T16:23:01.144Z,59.10
2019-06-07T16:27:04.268Z,58.40
2019-06-07T16:31:07.320Z,57.20
2019-06-07T16:35:10.969Z,57.40
2019-06-07T16:39:14.037Z,57.50
2019-06-07T16:43:18.461Z,57.90
2019-06-07T16:47:21.769Z,57.60
2019-06-07T16:51:24.788Z,69.30
2019-06-07T16:55:27.865Z,72.90
2019-06-07T16:59:30.909Z,76.70
2019-06-07T17:03:33.930Z,83.60
2019-06-07T17:07:38.358Z,87.40
2019-06-07T17:11:44.335Z,84.00
2019-06-07T17:15:48.872Z,86.80
2019-06-07T17:19:52.170Z,90.30
2019-06-07T17:23:55.191Z,90.30
2019-06-07T17:27:58.175Z,90.50
2019-06-07T17:32:01.184Z,86.40
2019-06-07T17:36:04.232Z,81.70
2019-06-07T17:40:07.597Z,77.00
2019-06-07T17:44:10.659Z,74.70
2019-06-07T17:48:13.773Z,73.70
2019-06-07T17:52:16.851Z,73.00
2019-06-07T17:56:19.957Z,74.60
2019-06-07T18:00:28.999Z,71.50
2019-06-07T18:04:32.151Z,71.40
2019-06-07T18:08:35.477Z,68.50
2019-06-07T18:12:40.421Z,69.80
2019-06-07T18:16:44.378Z,68.60
2019-06-07T18:20:47.547Z,71.80
2019-06-07T18:24:50.729Z,70.70
2019-06-07T18:28:54.703Z,70.20
2019-06-07T18:33:02.053Z,73.90
2019-06-07T18:37:06.082Z,75.80
2019-06-07T18:41:09.191Z,76.70
2019-06-07T18:45:12.278Z,79.00
2019-06-07T18:49:15.374Z,80.50
2019-06-07T18:53:18.485Z,82.20
2019-06-07T18:57:22.481Z,84.60
2019-06-07T19:01:25.487Z,86.30
2019-06-07T19:05:28.573Z,87.60
2019-06-07T19:09:31.573Z,87.60
2019-06-07T19:13:36.365Z,88.10
2019-06-07T19:17:39.448Z,89.40
2019-06-07T19:21:42.487Z,89.90
2019-06-07T19:25:45.481Z,88.80
2019-06-07T19:29:48.483Z,89.60
2019-06-07T19:33:51.495Z,90.40
2019-06-07T19:37:55.740Z,89.40
2019-06-07T19:42:00.081Z,89.40
2019-06-07T19:46:03.243Z,90.30
2019-06-07T19:50:06.633Z,90.00
2019-06-07T19:54:09.679Z,89.20
2019-06-07T19:58:12.698Z,90.00
2019-06-07T20:02:15.815Z,89.80
2019-06-07T20:06:18.840Z,89.50
2019-06-07T20:10:21.826Z,89.40
2019-06-07T20:14:25.717Z,89.50
2019-06-07T20:18:28.722Z,90.00
2019-06-07T20:22:31.714Z,87.40
2019-06-07T20:26:34.707Z,87.40
2019-06-07T20:30:37.713Z,89.50
2019-06-07T20:34:44.296Z,91.60
2019-06-07T20:38:45.574Z,93.70
2019-06-07T20:42:48.574Z,93.70
2019-06-07T20:46:51.573Z,94.10
2019-06-07T20:50:54.563Z,94.00
2019-06-07T20:54:58.441Z,94.00
2019-06-07T20:59:02.783Z,93.20
2019-06-07T21:03:07.260Z,93.20
2019-06-07T21:07:10.538Z,93.70
2019-06-07T21:11:13.649Z,93.60
2019-06-07T21:15:18.325Z,92.70
2019-06-07T21:19:21.387Z,91.80
2019-06-07T21:23:24.503Z,92.00
2019-06-07T21:27:27.524Z,91.60
2019-06-07T21:31:30.522Z,91.70
2019-06-07T21:35:33.519Z,92.30
2019-06-07T21:39:36.519Z,92.90
2019-06-07T21:43:39.589Z,92.90
2019-06-07T21:47:42.680Z,92.30
2019-06-07T21:51:45.646Z,92.00
2019-06-07T21:55:48.649Z,91.20
2019-06-07T21:59:51.653Z,91.70
2019-06-07T22:03:54.624Z,91.40
2019-06-07T22:07:57.614Z,91.00
2019-06-07T22:12:00.598Z,92.10
2019-06-07T22:16:19.922Z,91.60
2019-06-07T22:20:10.957Z,90.90
2019-06-07T22:24:15.106Z,91.30
2019-06-07T22:28:18.496Z,90.70
2019-06-07T22:32:21.542Z,90.90
2019-06-07T22:36:24.530Z,90.90
2019-06-07T22:40:27.529Z,90.80
2019-06-07T22:44:30.514Z,90.90
2019-06-07T22:48:33.505Z,91.30
2019-06-07T22:52:36.499Z,91.50
2019-06-07T22:56:50.296Z,91.40
2019-06-07T23:00:53.275Z,91.20
2019-06-07T23:04:56.264Z,91.20
2019-06-07T23:08:59.244Z,91.20
2019-06-07T23:13:02.846Z,91.10
2019-06-07T23:17:06.467Z,90.90
2019-06-07T23:21:09.698Z,90.70
2019-06-07T23:25:16.049Z,90.70
2019-06-07T23:29:18.671Z,90.50
2019-06-07T23:33:21.940Z,89.90
2019-06-07T23:37:24.932Z,88.60
2019-06-07T23:41:27.941Z,87.60
2019-06-07T23:45:30.971Z,86.90
2019-06-07T23:49:34.026Z,85.90
2019-06-07T23:53:37.025Z,86.70
2019-06-07T23:57:40.026Z,85.30
